createdAt,value
2018-05-04T00:01:16.537Z,4.23
2018-05-04T00:03:51.158Z,4.77
2018-05-04T00:06:25.756Z,4.53
2018-05-04T00:09:00.436Z,6.40
2018-05-04T00:11:34.892Z,4.97
2018-05-04T00:14:09.549Z,5.93
2018-05-04T00:16:44.120Z,4.90
2018-05-04T00:19:18.809Z,4.87
2018-05-04T00:21:53.399Z,5.97
2018-05-04T00:24:28.168Z,5.80
2018-05-04T00:27:02.589Z,5.13
2018-05-04T00:29:37.053Z,6.97
2018-05-04T00:32:11.401Z,7.23
2018-05-04T00:34:45.999Z,9.57
2018-05-04T00:37:20.575Z,6.47
2018-05-04T00:39:55.903Z,7.77
2018-05-04T00:42:30.537Z,6.10
2018-05-04T00:45:05.779Z,7.60
2018-05-04T00:47:40.391Z,9.73
2018-05-04T00:50:15.128Z,9.10
2018-05-04T00:52:49.846Z,5.47
2018-05-04T00:55:24.586Z,8.43
2018-05-04T00:57:59.846Z,9.00
2018-05-04T01:00:34.446Z,11.07
2018-05-04T01:03:09.033Z,6.80
2018-05-04T01:05:43.582Z,7.83
2018-05-04T01:08:18.181Z,7.43
2018-05-04T01:10:52.749Z,6.87
2018-05-04T01:13:28.040Z,9.57
2018-05-04T01:16:03.386Z,5.23
2018-05-04T01:18:37.856Z,8.40
2018-05-04T01:21:12.321Z,6.90
2018-05-04T01:23:47.064Z,6.50
2018-05-04T01:26:21.506Z,7.47
2018-05-04T01:28:56.012Z,7.87
2018-05-04T01:31:30.553Z,8.63
2018-05-04T01:34:05.853Z,10.00
2018-05-04T01:36:40.377Z,11.53
2018-05-04T01:39:14.914Z,8.60
2018-05-04T01:41:50.178Z,10.77
2018-05-04T01:44:24.735Z,8.73
2018-05-04T01:46:59.259Z,12.37
2018-05-04T01:49:33.749Z,8.17
2018-05-04T01:52:09.052Z,6.93
2018-05-04T01:54:43.659Z,8.47
2018-05-04T01:57:18.300Z,10.87
2018-05-04T01:59:52.779Z,8.80
2018-05-04T02:02:27.441Z,11.23
2018-05-04T02:05:01.970Z,11.17
2018-05-04T02:07:36.456Z,10.90
2018-05-04T02:10:10.929Z,8.80
2018-05-04T02:12:45.488Z,10.97
2018-05-04T02:15:20.908Z,10.23
2018-05-04T02:17:55.524Z,10.00
2018-05-04T02:20:30.074Z,10.60
2018-05-04T02:23:04.672Z,13.00
2018-05-04T02:25:39.333Z,8.23
2018-05-04T02:28:13.904Z,9.10
2018-05-04T02:30:48.460Z,12.03
2018-05-04T02:33:23.142Z,10.23
2018-05-04T02:35:58.453Z,8.13
2018-05-04T02:38:33.759Z,8.67
2018-05-04T02:41:08.337Z,10.80
2018-05-04T02:43:42.826Z,12.23
2018-05-04T02:46:17.520Z,10.10
2018-05-04T02:48:52.910Z,12.77
2018-05-04T02:51:27.468Z,13.37
2018-05-04T02:54:01.893Z,13.40
2018-05-04T02:56:36.413Z,10.77
2018-05-04T02:59:10.982Z,12.30
2018-05-04T03:01:45.605Z,11.57
2018-05-04T03:04:20.224Z,13.40
2018-05-04T03:06:54.881Z,11.53
2018-05-04T03:09:30.088Z,12.90
2018-05-04T03:12:04.714Z,11.87
2018-05-04T03:14:39.441Z,11.43
2018-05-04T03:17:14.089Z,12.07
2018-05-04T03:19:48.547Z,12.57
2018-05-04T03:22:23.109Z,10.83
2018-05-04T03:24:57.649Z,12.03
2018-05-04T03:27:32.252Z,13.63
2018-05-04T03:30:06.721Z,14.33
2018-05-04T03:32:41.444Z,9.97
2018-05-04T03:35:15.866Z,12.97
2018-05-04T03:37:50.305Z,11.60
2018-05-04T03:40:24.914Z,12.73
2018-05-04T03:42:59.489Z,18.17
2018-05-04T03:45:34.045Z,11.87
2018-05-04T03:48:09.625Z,11.47
2018-05-04T03:50:44.025Z,15.87
2018-05-04T03:53:18.599Z,13.93
2018-05-04T03:55:53.996Z,14.47
2018-05-04T03:58:46.362Z,12.30
2018-05-04T04:01:38.733Z,11.53
2018-05-04T04:04:13.393Z,12.40
2018-05-04T04:06:48.017Z,14.87
2018-05-04T04:09:22.704Z,14.10
2018-05-04T04:11:58.020Z,12.17
2018-05-04T04:14:32.566Z,13.53
2018-05-04T04:17:06.961Z,11.40
2018-05-04T04:19:42.326Z,13.67
2018-05-04T04:22:17.060Z,11.90
2018-05-04T04:24:51.679Z,14.93
2018-05-04T04:27:26.329Z,10.83
2018-05-04T04:30:00.739Z,11.07
2018-05-04T04:32:35.344Z,10.83
2018-05-04T04:35:09.883Z,11.27
2018-05-04T04:37:44.300Z,11.87
2018-05-04T04:40:19.594Z,9.80
2018-05-04T04:42:54.230Z,11.87
2018-05-04T04:45:29.574Z,10.57
2018-05-04T04:48:04.112Z,10.53
2018-05-04T04:50:38.669Z,10.30
2018-05-04T04:53:13.089Z,12.43
2018-05-04T04:55:47.561Z,12.50
2018-05-04T04:58:22.117Z,12.60
2018-05-04T05:00:56.679Z,16.40
2018-05-04T05:03:31.085Z,8.93
2018-05-04T05:06:05.639Z,16.20
2018-05-04T05:08:40.821Z,13.10
2018-05-04T05:11:15.490Z,12.17
2018-05-04T05:13:50.050Z,13.63
2018-05-04T05:16:25.254Z,13.80
2018-05-04T05:18:59.837Z,16.70
2018-05-04T05:21:34.466Z,14.80
2018-05-04T05:24:09.054Z,12.20
2018-05-04T05:26:43.461Z,16.10
2018-05-04T05:29:17.894Z,14.70
2018-05-04T05:31:53.124Z,14.97
2018-05-04T05:34:27.693Z,17.43
2018-05-04T05:37:02.153Z,17.93
2018-05-04T05:39:36.644Z,17.07
2018-05-04T05:42:11.941Z,18.03
2018-05-04T05:44:46.491Z,17.27
2018-05-04T05:47:21.091Z,21.73
2018-05-04T05:49:55.670Z,15.33
2018-05-04T05:52:31.015Z,15.70
2018-05-04T05:55:05.603Z,16.07
2018-05-04T05:57:40.161Z,16.30
2018-05-04T06:00:14.692Z,15.93
2018-05-04T06:02:49.114Z,15.87
2018-05-04T06:05:23.516Z,13.90
2018-05-04T06:07:59.032Z,14.17
2018-05-04T06:10:33.548Z,14.63
2018-05-04T06:13:08.873Z,15.27
2018-05-04T06:15:43.566Z,15.73
2018-05-04T06:18:18.321Z,13.17
2018-05-04T06:20:52.844Z,12.47
2018-05-04T06:23:27.415Z,15.43
2018-05-04T06:26:02.839Z,17.47
2018-05-04T06:28:37.238Z,11.07
2018-05-04T06:31:12.617Z,12.23
2018-05-04T06:33:47.106Z,12.33
2018-05-04T06:36:21.701Z,10.70
2018-05-04T06:38:56.355Z,13.63
2018-05-04T06:41:30.974Z,14.17
2018-05-04T06:44:05.398Z,12.10
2018-05-04T06:46:39.919Z,15.17
2018-05-04T06:49:14.604Z,12.00
2018-05-04T06:51:49.307Z,10.17
2018-05-04T06:54:23.849Z,15.57
2018-05-04T06:56:58.434Z,11.73
2018-05-04T06:59:33.103Z,10.47
2018-05-04T07:02:07.541Z,10.33
2018-05-04T07:04:42.012Z,10.23
2018-05-04T07:07:16.644Z,11.47
2018-05-04T07:09:51.130Z,10.73
2018-05-04T07:12:26.498Z,9.90
2018-05-04T07:15:01.254Z,13.60
2018-05-04T07:17:35.760Z,7.33
2018-05-04T07:20:10.306Z,11.37
2018-05-04T07:22:44.937Z,11.67
2018-05-04T07:25:19.532Z,11.10
2018-05-04T07:27:54.114Z,12.70
2018-05-04T07:30:28.723Z,12.53
2018-05-04T07:33:03.246Z,9.03
2018-05-04T07:35:37.661Z,10.47
2018-05-04T07:38:13.008Z,8.17
2018-05-04T07:40:47.457Z,9.50
2018-05-04T07:43:21.863Z,12.13
2018-05-04T07:45:56.570Z,7.57
2018-05-04T07:48:31.179Z,8.63
2018-05-04T07:51:06.488Z,7.93
2018-05-04T07:53:41.144Z,9.53
2018-05-04T07:56:16.535Z,8.27
2018-05-04T07:58:51.914Z,15.23
2018-05-04T08:01:26.405Z,10.00
2018-05-04T08:04:00.978Z,7.70
2018-05-04T08:06:35.604Z,11.17
2018-05-04T08:09:10.842Z,11.83
2018-05-04T08:11:45.406Z,10.23
2018-05-04T08:14:19.889Z,9.63
2018-05-04T08:16:54.507Z,8.73
2018-05-04T08:19:29.842Z,7.63
2018-05-04T08:22:04.422Z,6.70
2018-05-04T08:24:39.004Z,6.90
2018-05-04T08:27:13.521Z,7.83
2018-05-04T08:29:48.173Z,4.73
2018-05-04T08:32:22.711Z,6.83
2018-05-04T08:34:57.388Z,6.63
2018-05-04T08:37:32.044Z,7.37
2018-05-04T08:40:06.582Z,7.57
2018-05-04T08:42:41.031Z,8.07
2018-05-04T08:45:16.367Z,10.60
2018-05-04T08:47:51.577Z,7.77
2018-05-04T08:50:26.244Z,8.83
2018-05-04T08:53:00.936Z,8.07
2018-05-04T08:55:35.575Z,7.30
2018-05-04T08:58:10.145Z,5.90
2018-05-04T09:00:44.704Z,7.13
2018-05-04T09:03:19.896Z,8.47
2018-05-04T09:05:54.441Z,6.90
2018-05-04T09:08:29.112Z,7.20
2018-05-04T09:11:04.484Z,5.63
2018-05-04T09:13:39.065Z,8.00
2018-05-04T09:16:13.680Z,3.63
2018-05-04T09:18:48.313Z,5.00
2018-05-04T09:21:22.955Z,5.43
2018-05-04T09:23:57.577Z,3.93
2018-05-04T09:26:32.089Z,6.63
2018-05-04T09:29:06.576Z,8.13
2018-05-04T09:31:41.161Z,6.17
2018-05-04T09:34:16.567Z,5.30
2018-05-04T09:36:51.101Z,6.73
2018-05-04T09:39:25.741Z,4.10
2018-05-04T09:42:00.375Z,6.93
2018-05-04T09:44:34.901Z,3.77
2018-05-04T09:47:09.550Z,5.73
2018-05-04T09:49:44.095Z,5.33
2018-05-04T09:52:18.671Z,6.03
2018-05-04T09:54:53.319Z,5.07
2018-05-04T09:57:27.812Z,6.67
2018-05-04T10:00:02.419Z,4.87
2018-05-04T10:02:36.950Z,4.73
2018-05-04T10:05:11.543Z,4.67
2018-05-04T10:07:46.849Z,8.30
2018-05-04T10:10:21.536Z,4.73
2018-05-04T10:12:56.058Z,4.03
2018-05-04T10:15:30.628Z,3.77
2018-05-04T10:18:05.245Z,3.57
2018-05-04T10:20:39.885Z,5.90
2018-05-04T10:23:14.442Z,5.27
2018-05-04T10:25:48.966Z,6.43
2018-05-04T10:28:23.361Z,5.67
2018-05-04T10:30:58.019Z,6.17
2018-05-04T10:33:32.657Z,4.90
2018-05-04T10:36:07.239Z,6.50
2018-05-04T10:38:42.015Z,6.87
2018-05-04T10:41:16.287Z,5.20
2018-05-04T10:43:50.947Z,7.07
2018-05-04T10:46:25.521Z,5.33
2018-05-04T10:49:00.180Z,5.63
2018-05-04T10:51:34.802Z,4.23
2018-05-04T10:54:10.149Z,6.60
2018-05-04T10:56:44.740Z,5.63
2018-05-04T10:59:20.126Z,7.93
2018-05-04T11:01:54.737Z,5.97
2018-05-04T11:04:29.186Z,4.93
2018-05-04T11:07:03.826Z,4.77
2018-05-04T11:09:38.253Z,5.13
2018-05-04T11:12:12.813Z,6.60
2018-05-04T11:14:47.722Z,4.77
2018-05-04T11:17:22.284Z,6.43
2018-05-04T11:19:56.892Z,4.47
2018-05-04T11:22:32.227Z,3.37
2018-05-04T11:25:06.789Z,5.23
2018-05-04T11:27:41.424Z,4.97
2018-05-04T11:30:16.006Z,6.70
2018-05-04T11:32:50.651Z,4.00
2018-05-04T11:35:25.261Z,4.67
2018-05-04T11:37:59.875Z,6.30
2018-05-04T11:40:34.458Z,3.63
2018-05-04T11:43:09.082Z,4.03
2018-05-04T11:45:43.659Z,3.10
2018-05-04T11:48:19.082Z,5.93
2018-05-04T11:50:54.397Z,5.07
2018-05-04T11:53:29.020Z,4.13
2018-05-04T11:56:04.363Z,4.40
2018-05-04T11:58:38.935Z,4.20
2018-05-04T12:01:13.604Z,3.63
2018-05-04T12:03:48.130Z,5.50
2018-05-04T12:06:22.739Z,7.93
2018-05-04T12:08:57.213Z,3.77
2018-05-04T12:11:32.537Z,4.00
2018-05-04T12:14:07.151Z,6.77
2018-05-04T12:16:41.651Z,6.20
2018-05-04T12:19:16.168Z,5.00
2018-05-04T12:21:50.852Z,3.90
2018-05-04T12:24:26.065Z,5.43
2018-05-04T12:27:00.643Z,4.73
2018-05-04T12:29:35.268Z,3.33
2018-05-04T12:32:09.780Z,4.73
2018-05-04T12:34:44.354Z,4.43
2018-05-04T12:37:19.611Z,5.30
2018-05-04T12:39:54.189Z,3.73
2018-05-04T12:42:28.800Z,4.67
2018-05-04T12:45:03.501Z,4.87
2018-05-04T12:47:38.276Z,4.43
2018-05-04T12:50:13.682Z,2.97
2018-05-04T12:52:48.300Z,6.47
2018-05-04T12:55:22.786Z,5.73
2018-05-04T12:57:57.376Z,3.63
2018-05-04T13:00:31.941Z,4.60
2018-05-04T13:03:06.502Z,4.87
2018-05-04T13:05:41.013Z,3.83
2018-05-04T13:08:15.684Z,5.10
2018-05-04T13:10:50.262Z,4.27
2018-05-04T13:13:24.801Z,3.60
2018-05-04T13:15:59.312Z,4.90
2018-05-04T13:18:33.957Z,4.37
2018-05-04T13:21:08.582Z,6.70
2018-05-04T13:23:43.925Z,3.50
2018-05-04T13:26:18.704Z,5.27
2018-05-04T13:28:53.324Z,4.67
2018-05-04T13:31:28.670Z,4.57
2018-05-04T13:34:03.102Z,3.43
2018-05-04T13:36:37.666Z,4.23
2018-05-04T13:39:12.263Z,6.97
2018-05-04T13:41:46.828Z,4.37
2018-05-04T13:44:21.297Z,4.53
2018-05-04T13:46:55.727Z,4.40
2018-05-04T13:49:30.192Z,5.60
2018-05-04T13:52:04.716Z,5.67
2018-05-04T13:54:39.934Z,4.63
2018-05-04T13:57:14.605Z,5.87
2018-05-04T13:59:50.535Z,6.97
2018-05-04T14:02:25.058Z,6.20
2018-05-04T14:04:59.590Z,4.70
2018-05-04T14:07:34.152Z,5.27
2018-05-04T14:10:08.762Z,7.10
2018-05-04T14:12:43.416Z,5.70
2018-05-04T14:15:17.983Z,6.97
2018-05-04T14:17:52.710Z,4.43
2018-05-04T14:20:27.130Z,5.67
2018-05-04T14:23:01.653Z,5.73
2018-05-04T14:25:36.287Z,4.60
2018-05-04T14:28:10.773Z,5.70
2018-05-04T14:30:45.354Z,6.27
2018-05-04T14:33:19.975Z,5.03
2018-05-04T14:35:54.395Z,3.90
2018-05-04T14:38:29.020Z,8.30
2018-05-04T14:41:03.634Z,5.83
2018-05-04T14:43:38.211Z,6.00
2018-05-04T14:46:12.633Z,6.33
2018-05-04T14:48:47.226Z,5.50
2018-05-04T14:51:21.719Z,5.27
2018-05-04T14:53:56.126Z,6.13
2018-05-04T14:56:30.715Z,6.43
2018-05-04T14:59:05.255Z,5.77
2018-05-04T15:01:39.838Z,5.10
2018-05-04T15:04:14.421Z,6.73
2018-05-04T15:06:48.994Z,5.70
2018-05-04T15:09:23.480Z,6.53
2018-05-04T15:11:58.096Z,5.57
2018-05-04T15:14:32.684Z,5.93
2018-05-04T15:17:07.293Z,8.77
2018-05-04T15:19:41.685Z,6.93
2018-05-04T15:22:16.361Z,11.53
2018-05-04T15:24:51.702Z,8.33
2018-05-04T15:27:26.088Z,7.90
2018-05-04T15:30:00.685Z,6.77
2018-05-04T15:32:35.340Z,7.13
2018-05-04T15:35:09.901Z,12.03
2018-05-04T15:37:44.512Z,6.53
2018-05-04T15:40:19.140Z,7.43
2018-05-04T15:42:54.485Z,7.07
2018-05-04T15:45:29.117Z,7.07
2018-05-04T15:48:10.150Z,5.80
2018-05-04T15:53:49.809Z,5.40
2018-05-04T15:56:24.377Z,8.50
2018-05-04T15:58:58.994Z,15.03
2018-05-04T16:01:33.466Z,7.83
2018-05-04T16:04:08.085Z,6.77
2018-05-04T16:06:42.673Z,5.77
2018-05-04T16:09:17.235Z,4.83
2018-05-04T16:11:51.819Z,7.00
2018-05-04T16:14:26.408Z,7.30
2018-05-04T16:17:00.985Z,8.20
2018-05-04T16:19:35.616Z,7.50
2018-05-04T16:22:10.964Z,7.17
2018-05-04T16:24:45.574Z,9.07
2018-05-04T16:27:20.038Z,7.50
2018-05-04T16:29:54.595Z,5.93
2018-05-04T16:32:29.932Z,7.30
2018-05-04T16:35:04.524Z,6.67
2018-05-04T16:37:39.150Z,12.60
2018-05-04T16:40:13.716Z,7.20
2018-05-04T16:42:48.273Z,5.27
2018-05-04T16:45:22.905Z,6.20
2018-05-04T16:48:02.650Z,6.63
2018-05-04T16:50:37.290Z,7.47
2018-05-04T16:53:11.833Z,7.33
2018-05-04T16:55:46.470Z,8.97
2018-05-04T16:58:21.041Z,9.10
2018-05-04T17:00:55.676Z,12.23
2018-05-04T17:03:30.284Z,8.43
2018-05-04T17:06:04.841Z,6.57
2018-05-04T17:08:39.504Z,5.90
2018-05-04T17:11:14.057Z,5.93
2018-05-04T17:13:48.534Z,6.93
2018-05-04T17:16:23.145Z,6.80
2018-05-04T17:18:57.824Z,8.13
2018-05-04T17:21:32.363Z,9.80
2018-05-04T17:24:07.035Z,7.00
2018-05-04T17:26:42.356Z,18.43
2018-05-04T17:29:16.812Z,9.70
2018-05-04T17:31:51.467Z,6.20
2018-05-04T17:34:25.988Z,7.63
2018-05-04T17:37:00.385Z,9.90
2018-05-04T17:39:34.949Z,8.47
2018-05-04T17:42:10.124Z,9.90
2018-05-04T17:44:44.747Z,8.97
2018-05-04T17:47:20.054Z,7.53
2018-05-04T17:49:54.617Z,7.50
2018-05-04T17:52:29.245Z,5.67
2018-05-04T17:55:04.638Z,6.93
2018-05-04T17:57:39.162Z,10.30
2018-05-04T18:00:13.644Z,7.80
2018-05-04T18:02:48.268Z,6.73
2018-05-04T18:05:22.938Z,5.50
2018-05-04T18:07:57.520Z,6.63
2018-05-04T18:10:32.852Z,5.07
2018-05-04T18:13:07.413Z,10.00
2018-05-04T18:15:42.014Z,7.90
2018-05-04T18:18:16.427Z,6.03
2018-05-04T18:20:50.876Z,6.00
2018-05-04T18:23:25.429Z,7.53
2018-05-04T18:25:59.974Z,5.67
2018-05-04T18:28:34.652Z,5.63
2018-05-04T18:31:09.233Z,5.23
2018-05-04T18:33:43.832Z,5.37
2018-05-04T18:36:18.411Z,6.53
2018-05-04T18:38:53.047Z,5.33
2018-05-04T18:41:27.583Z,6.83
2018-05-04T18:44:02.200Z,6.30
2018-05-04T18:46:37.508Z,5.03
2018-05-04T18:49:12.104Z,10.90
2018-05-04T18:51:46.581Z,13.10
2018-05-04T18:54:21.329Z,7.57
2018-05-04T18:56:55.898Z,13.70
2018-05-04T18:59:31.248Z,9.07
2018-05-04T19:02:05.830Z,7.33
2018-05-04T19:04:40.451Z,10.27
2018-05-04T19:07:15.922Z,7.77
2018-05-04T19:09:50.646Z,5.30
2018-05-04T19:12:25.223Z,5.90
2018-05-04T19:14:59.849Z,4.80
2018-05-04T19:17:34.329Z,6.80
2018-05-04T19:20:08.926Z,4.17
2018-05-04T19:22:43.472Z,5.27
2018-05-04T19:25:18.654Z,5.13
2018-05-04T19:27:53.201Z,5.13
2018-05-04T19:30:27.685Z,5.63
2018-05-04T19:33:02.246Z,4.20
2018-05-04T19:35:36.785Z,4.83
2018-05-04T19:38:11.353Z,5.27
2018-05-04T19:40:46.586Z,3.93
2018-05-04T19:43:21.070Z,3.90
2018-05-04T19:45:56.424Z,4.17
2018-05-04T19:48:31.138Z,7.23
2018-05-04T19:51:06.379Z,7.57
2018-05-04T19:53:41.050Z,6.63
2018-05-04T19:56:15.553Z,5.43
2018-05-04T19:58:50.900Z,6.93
2018-05-04T20:01:25.469Z,6.30
2018-05-04T20:04:00.067Z,5.23
2018-05-04T20:06:34.526Z,7.57
2018-05-04T20:09:09.159Z,6.33
2018-05-04T20:11:43.635Z,6.63
2018-05-04T20:14:18.275Z,6.93
2018-05-04T20:16:52.837Z,6.03
2018-05-04T20:19:27.577Z,6.80
2018-05-04T20:22:02.070Z,8.83
2018-05-04T20:24:36.719Z,5.10
2018-05-04T20:27:11.219Z,7.17
2018-05-04T20:29:45.775Z,6.57
2018-05-04T20:32:20.998Z,6.30
2018-05-04T20:34:56.100Z,7.87
2018-05-04T20:37:30.677Z,6.73
2018-05-04T20:40:06.092Z,7.33
2018-05-04T20:42:40.628Z,9.30
2018-05-04T20:45:15.289Z,7.97
2018-05-04T20:47:49.810Z,5.23
2018-05-04T20:50:24.419Z,7.97
2018-05-04T20:52:59.029Z,8.20
2018-05-04T20:55:33.595Z,8.27
2018-05-04T20:58:08.840Z,6.87
2018-05-04T21:00:43.418Z,5.50
2018-05-04T21:03:18.028Z,7.00
2018-05-04T21:05:53.378Z,5.43
2018-05-04T21:08:27.902Z,7.40
2018-05-04T21:11:02.615Z,8.03
2018-05-04T21:13:37.329Z,6.50
2018-05-04T21:16:11.759Z,8.53
2018-05-04T21:18:46.361Z,6.87
2018-05-04T21:21:21.026Z,7.27
2018-05-04T21:23:55.774Z,4.27
2018-05-04T21:26:30.451Z,5.13
2018-05-04T21:29:05.193Z,5.47
2018-05-04T21:31:39.813Z,6.60
2018-05-04T21:34:15.034Z,6.50
2018-05-04T21:36:55.882Z,8.10
2018-05-04T21:39:30.397Z,7.00
2018-05-04T21:42:04.989Z,6.07
2018-05-04T21:44:39.580Z,9.17
2018-05-04T21:47:14.178Z,7.07
2018-05-04T21:49:48.765Z,7.37
2018-05-04T21:52:23.381Z,10.87
2018-05-04T21:54:58.038Z,6.47
2018-05-04T21:57:32.578Z,10.10
2018-05-04T22:00:07.074Z,7.33
2018-05-04T22:02:41.682Z,7.97
2018-05-04T22:05:16.270Z,6.60
2018-05-04T22:07:50.905Z,8.83
2018-05-04T22:10:25.574Z,7.67
2018-05-04T22:13:00.796Z,6.93
2018-05-04T22:15:36.226Z,6.73
2018-05-04T22:18:10.622Z,9.50
2018-05-04T22:20:45.186Z,5.57
2018-05-04T22:23:19.773Z,7.10
2018-05-04T22:25:54.393Z,8.83
2018-05-04T22:28:29.095Z,6.27
2018-05-04T22:31:03.654Z,7.57
2018-05-04T22:33:38.152Z,6.57
2018-05-04T22:36:12.557Z,8.07
2018-05-04T22:38:47.092Z,7.07
2018-05-04T22:41:21.706Z,8.80
2018-05-04T22:43:56.127Z,7.40
2018-05-04T22:46:30.722Z,8.57
2018-05-04T22:49:05.962Z,8.60
2018-05-04T22:51:40.500Z,6.47
2018-05-04T22:54:15.192Z,6.67
2018-05-04T22:56:49.909Z,10.97
2018-05-04T22:59:24.373Z,7.40
2018-05-04T23:01:59.749Z,9.90
2018-05-04T23:04:34.280Z,9.33
2018-05-04T23:07:09.590Z,6.97
2018-05-04T23:09:44.854Z,7.40
2018-05-04T23:12:19.476Z,8.77
2018-05-04T23:14:53.924Z,7.93
2018-05-04T23:17:28.515Z,8.20
2018-05-04T23:20:03.136Z,7.50
2018-05-04T23:22:37.808Z,6.83
2018-05-04T23:25:13.078Z,8.80
2018-05-04T23:27:47.780Z,6.40
2018-05-04T23:30:22.278Z,6.03
2018-05-04T23:32:57.633Z,8.47
2018-05-04T23:35:32.195Z,11.37
2018-05-04T23:38:07.446Z,8.50
2018-05-04T23:40:42.006Z,9.20
2018-05-04T23:43:16.619Z,7.17
2018-05-04T23:45:51.277Z,6.13
2018-05-04T23:48:25.759Z,9.67
2018-05-04T23:51:00.202Z,12.83
2018-05-04T23:53:34.849Z,10.50
2018-05-04T23:56:11.550Z,7.53
2018-05-04T23:58:46.112Z,10.33
